createdAt,value
2019-06-01T00:02:12.735Z,97.50
2019-06-01T00:04:39.066Z,97.92
2019-06-01T00:07:05.389Z,97.66
2019-06-01T00:09:31.707Z,97.19
2019-06-01T00:11:58.048Z,97.89
2019-06-01T00:14:24.355Z,97.55
2019-06-01T00:16:50.694Z,97.64
2019-06-01T00:19:17.000Z,97.62
2019-06-01T00:21:43.331Z,98.05
2019-06-01T00:24:09.624Z,98.07
2019-06-01T00:26:35.959Z,97.72
2019-06-01T00:29:02.286Z,98.19
2019-06-01T00:31:28.588Z,97.96
2019-06-01T00:33:54.917Z,98.19
2019-06-01T00:36:21.269Z,98.50
2019-06-01T00:38:47.909Z,98.80
2019-06-01T00:41:13.896Z,97.83
2019-06-01T00:43:40.212Z,98.07
2019-06-01T00:46:06.521Z,98.86
2019-06-01T00:48:32.859Z,98.38
2019-06-01T00:50:59.161Z,98.55
2019-06-01T00:53:25.492Z,99.45
2019-06-01T00:55:51.801Z,99.76
2019-06-01T00:58:18.136Z,99.46
2019-06-01T01:00:46.007Z,99.20
2019-06-01T01:03:10.768Z,99.11
2019-06-01T01:05:37.123Z,98.20
2019-06-01T01:08:03.421Z,98.14
2019-06-01T01:10:29.747Z,98.50
2019-06-01T01:12:56.048Z,98.15
2019-06-01T01:15:22.401Z,98.69
2019-06-01T01:17:49.777Z,98.38
2019-06-01T01:20:15.021Z,98.25
2019-06-01T01:22:41.326Z,98.53
2019-06-01T01:25:07.625Z,98.09
2019-06-01T01:27:33.961Z,98.32
2019-06-01T01:30:00.262Z,98.24
2019-06-01T01:32:26.599Z,98.25
2019-06-01T01:34:53.742Z,98.58
2019-06-01T01:37:19.219Z,99.15
2019-06-01T01:39:45.547Z,99.19
2019-06-01T01:42:11.866Z,99.40
2019-06-01T01:44:38.213Z,99.17
2019-06-01T01:47:04.519Z,100.00
2019-06-01T01:49:30.851Z,100.00
2019-06-01T01:51:57.417Z,99.12
2019-06-01T01:54:23.463Z,99.62
2019-06-01T01:56:49.995Z,98.93
2019-06-01T01:59:16.098Z,99.40
2019-06-01T02:01:42.434Z,99.27
2019-06-01T02:04:08.749Z,98.76
2019-06-01T02:06:35.052Z,98.34
2019-06-01T02:09:01.871Z,98.35
2019-06-01T02:11:27.690Z,98.45
2019-06-01T02:13:54.065Z,98.10
2019-06-01T02:16:20.396Z,98.15
2019-06-01T02:18:46.686Z,97.97
2019-06-01T02:21:12.988Z,97.07
2019-06-01T02:23:39.297Z,97.21
2019-06-01T02:26:05.656Z,97.52
2019-06-01T02:28:31.960Z,96.24
2019-06-01T02:30:59.779Z,96.45
2019-06-01T02:33:24.620Z,97.03
2019-06-01T02:35:50.911Z,96.81
2019-06-01T02:38:17.230Z,96.46
2019-06-01T02:40:43.533Z,96.86
2019-06-01T02:43:09.865Z,96.14
2019-06-01T02:45:36.229Z,96.34
2019-06-01T02:48:03.884Z,96.26
2019-06-01T02:50:28.839Z,96.40
2019-06-01T02:52:55.515Z,96.45
2019-06-01T02:55:21.515Z,96.97
2019-06-01T02:57:47.844Z,96.50
2019-06-01T03:00:14.165Z,95.89
2019-06-01T03:02:40.493Z,95.38
2019-06-01T03:05:07.664Z,95.73
2019-06-01T03:07:33.114Z,96.23
2019-06-01T03:10:00.630Z,97.00
2019-06-01T03:12:25.771Z,96.63
2019-06-01T03:14:52.099Z,96.47
2019-06-01T03:17:18.402Z,95.94
2019-06-01T03:19:44.757Z,95.62
2019-06-01T03:22:12.099Z,96.03
2019-06-01T03:24:37.388Z,95.48
2019-06-01T03:27:04.666Z,95.80
2019-06-01T03:29:30.031Z,95.76
2019-06-01T03:32:17.668Z,95.70
2019-06-01T03:34:22.657Z,95.21
2019-06-01T03:36:48.980Z,95.29
2019-06-01T03:39:15.289Z,95.72
2019-06-01T03:41:41.591Z,95.06
2019-06-01T03:44:08.529Z,95.28
2019-06-01T03:46:34.255Z,95.61
2019-06-01T03:49:01.434Z,96.04
2019-06-01T03:51:26.913Z,95.47
2019-06-01T03:53:53.245Z,94.70
2019-06-01T03:56:19.549Z,94.83
2019-06-01T03:58:45.889Z,94.93
2019-06-01T04:01:12.221Z,94.49
2019-06-01T04:03:38.544Z,94.70
2019-06-01T04:06:05.331Z,94.17
2019-06-01T04:08:31.172Z,93.78
2019-06-01T04:10:57.505Z,92.77
2019-06-01T04:13:23.808Z,91.87
2019-06-01T04:15:50.137Z,91.12
2019-06-01T04:18:16.447Z,91.50
2019-06-01T04:20:42.763Z,91.22
2019-06-01T04:23:10.159Z,90.01
2019-06-01T04:25:35.426Z,88.36
2019-06-01T04:28:02.078Z,85.96
2019-06-01T04:30:28.083Z,86.63
2019-06-01T04:32:54.395Z,86.41
2019-06-01T04:35:20.727Z,87.15
2019-06-01T04:37:47.054Z,86.66
2019-06-01T04:40:13.649Z,86.19
2019-06-01T04:42:39.685Z,85.66
2019-06-01T04:45:06.900Z,86.23
2019-06-01T04:47:32.367Z,85.94
2019-06-01T04:49:58.675Z,85.90
2019-06-01T04:52:25.033Z,85.99
2019-06-01T04:54:51.332Z,85.89
2019-06-01T04:57:17.678Z,86.11
2019-06-01T04:59:44.016Z,85.58
2019-06-01T05:02:11.578Z,84.90
2019-06-01T05:04:36.678Z,84.06
2019-06-01T05:07:02.983Z,84.00
2019-06-01T05:09:29.332Z,85.65
2019-06-01T05:11:55.633Z,86.08
2019-06-01T05:14:21.974Z,85.22
2019-06-01T05:16:48.275Z,85.42
2019-06-01T05:19:14.628Z,84.73
2019-06-01T05:21:40.950Z,83.90
2019-06-01T05:24:08.725Z,83.75
2019-06-01T05:26:33.582Z,84.65
2019-06-01T05:28:59.888Z,84.22
2019-06-01T05:31:26.211Z,84.21
2019-06-01T05:33:52.527Z,84.18
2019-06-01T05:36:18.841Z,83.27
2019-06-01T05:38:45.169Z,83.46
2019-06-01T05:41:11.938Z,83.44
2019-06-01T05:43:37.824Z,84.18
2019-06-01T05:46:04.169Z,84.44
2019-06-01T05:48:30.831Z,83.72
2019-06-01T05:50:56.833Z,83.95
2019-06-01T05:53:23.199Z,82.81
2019-06-01T05:55:49.490Z,81.83
2019-06-01T05:58:17.116Z,81.70
2019-06-01T06:00:42.135Z,80.88
2019-06-01T06:03:08.451Z,81.14
2019-06-01T06:05:34.775Z,81.79
2019-06-01T06:08:01.102Z,81.21
2019-06-01T06:10:27.424Z,81.01
2019-06-01T06:12:53.774Z,80.68
2019-06-01T06:15:20.080Z,73.89
2019-06-01T06:17:46.383Z,70.41
2019-06-01T06:20:13.782Z,66.23
2019-06-01T06:22:41.224Z,62.54
2019-06-01T06:25:05.373Z,63.83
2019-06-01T06:27:31.685Z,65.54
2019-06-01T06:29:58.002Z,61.62
2019-06-01T06:32:24.305Z,62.06
2019-06-01T06:34:50.636Z,65.36
2019-06-01T06:37:17.642Z,62.56
2019-06-01T06:39:43.258Z,61.02
2019-06-01T06:42:09.582Z,60.33
2019-06-01T06:44:35.874Z,58.59
2019-06-01T06:47:02.207Z,56.54
2019-06-01T06:49:28.507Z,55.98
2019-06-01T06:51:54.828Z,56.08
2019-06-01T06:54:21.862Z,57.29
2019-06-01T06:56:47.442Z,60.44
2019-06-01T06:59:13.770Z,62.98
2019-06-01T07:01:40.066Z,63.82
2019-06-01T07:04:12.751Z,66.31
2019-06-01T07:06:32.739Z,67.46
2019-06-01T07:08:59.053Z,65.93
2019-06-01T07:11:25.455Z,64.61
2019-06-01T07:13:51.693Z,63.09
2019-06-01T07:16:19.205Z,57.15
2019-06-01T07:18:44.322Z,54.98
2019-06-01T07:21:10.631Z,53.58
2019-06-01T07:23:36.952Z,50.90
2019-06-01T07:26:03.254Z,53.98
2019-06-01T07:28:29.580Z,54.49
2019-06-01T07:30:55.898Z,53.64
2019-06-01T07:33:22.440Z,55.64
2019-06-01T07:35:48.548Z,57.57
2019-06-01T07:38:14.894Z,57.53
2019-06-01T07:40:41.235Z,56.51
2019-06-01T07:43:07.546Z,54.18
2019-06-01T07:45:35.320Z,52.31
2019-06-01T07:48:00.231Z,50.79
2019-06-01T07:50:26.529Z,51.15
2019-06-01T07:52:52.887Z,49.38
2019-06-01T07:55:19.207Z,48.68
2019-06-01T07:57:45.506Z,52.31
2019-06-01T08:00:11.847Z,55.24
2019-06-01T08:02:38.147Z,56.43
2019-06-01T08:05:04.484Z,53.02
2019-06-01T08:07:31.311Z,51.07
2019-06-01T08:09:57.202Z,49.46
2019-06-01T08:12:23.480Z,48.14
2019-06-01T08:14:49.785Z,47.70
2019-06-01T08:17:16.114Z,47.30
2019-06-01T08:19:42.418Z,49.51
2019-06-01T08:22:08.770Z,48.76
2019-06-01T08:24:35.084Z,47.83
2019-06-01T08:27:01.399Z,45.83
2019-06-01T08:29:28.805Z,47.78
2019-06-01T08:31:55.856Z,46.67
2019-06-01T08:34:20.340Z,46.43
2019-06-01T08:36:46.671Z,45.92
2019-06-01T08:39:13.004Z,44.94
2019-06-01T08:41:39.332Z,44.69
2019-06-01T08:44:05.645Z,47.97
2019-06-01T08:46:31.982Z,51.02
2019-06-01T08:48:58.290Z,54.26
2019-06-01T08:51:26.360Z,56.33
2019-06-01T08:53:50.951Z,54.56
2019-06-01T08:56:17.253Z,54.47
2019-06-01T08:58:43.580Z,53.88
2019-06-01T09:01:09.891Z,54.03
2019-06-01T09:03:43.644Z,53.14
2019-06-01T09:06:02.511Z,54.01
2019-06-01T09:08:28.958Z,54.17
2019-06-01T09:10:55.144Z,53.41
2019-06-01T09:13:21.544Z,53.85
2019-06-01T09:15:47.866Z,53.26
2019-06-01T09:18:14.205Z,50.25
2019-06-01T09:20:40.529Z,47.77
2019-06-01T09:23:06.834Z,45.30
2019-06-01T09:25:33.829Z,44.71
2019-06-01T09:27:59.469Z,43.01
2019-06-01T09:30:25.933Z,42.53
2019-06-01T09:32:52.142Z,41.79
2019-06-01T09:35:18.464Z,42.03
2019-06-01T09:37:45.889Z,42.56
2019-06-01T09:40:11.128Z,40.66
2019-06-01T09:42:37.616Z,41.46
2019-06-01T09:45:03.781Z,40.17
2019-06-01T09:47:30.987Z,39.54
2019-06-01T09:49:56.420Z,39.40
2019-06-01T09:52:22.743Z,40.30
2019-06-01T09:54:49.050Z,41.14
2019-06-01T09:57:15.371Z,41.23
2019-06-01T09:59:41.678Z,40.53
2019-06-01T10:02:08.008Z,40.34
2019-06-01T10:04:34.447Z,38.94
2019-06-01T10:07:00.628Z,40.07
2019-06-01T10:09:26.931Z,41.72
2019-06-01T10:11:53.245Z,43.52
2019-06-01T10:14:19.578Z,42.43
2019-06-01T10:16:45.914Z,42.04
2019-06-01T10:19:12.232Z,40.76
2019-06-01T10:21:38.536Z,42.58
2019-06-01T10:24:04.890Z,39.76
2019-06-01T10:26:31.414Z,40.49
2019-06-01T10:28:57.520Z,39.56
2019-06-01T10:31:23.880Z,41.09
2019-06-01T10:33:51.775Z,42.13
2019-06-01T10:36:21.037Z,40.43
2019-06-01T10:38:42.806Z,40.17
2019-06-01T10:41:09.137Z,40.44
2019-06-01T10:43:35.668Z,40.13
2019-06-01T10:46:01.811Z,40.00
2019-06-01T10:48:28.121Z,38.91
2019-06-01T10:50:54.436Z,39.36
2019-06-01T10:53:20.758Z,40.56
2019-06-01T10:55:47.058Z,40.49
2019-06-01T10:58:13.393Z,39.72
2019-06-01T11:00:47.752Z,39.78
2019-06-01T11:03:06.103Z,39.06
2019-06-01T11:05:32.601Z,40.09
2019-06-01T11:07:58.681Z,39.42
2019-06-01T11:10:24.988Z,41.11
2019-06-01T11:12:51.350Z,39.01
2019-06-01T11:15:17.643Z,39.97
2019-06-01T11:17:43.965Z,38.99
2019-06-01T11:20:10.274Z,38.15
2019-06-01T11:22:37.514Z,40.66
2019-06-01T11:25:02.977Z,40.75
2019-06-01T11:27:29.283Z,41.60
2019-06-01T11:29:55.629Z,42.45
2019-06-01T11:32:21.934Z,43.24
2019-06-01T11:34:48.273Z,43.70
2019-06-01T11:37:15.832Z,43.19
2019-06-01T11:39:40.913Z,43.14
2019-06-01T11:42:07.231Z,43.18
2019-06-01T11:44:34.623Z,42.76
2019-06-01T11:46:59.870Z,41.75
2019-06-01T11:49:26.178Z,42.30
2019-06-01T11:51:52.565Z,43.20
2019-06-01T11:54:18.823Z,43.58
2019-06-01T11:56:45.509Z,44.24
2019-06-01T11:59:11.458Z,44.60
2019-06-01T12:01:37.813Z,45.13
2019-06-01T12:04:04.111Z,44.02
2019-06-01T12:06:30.446Z,43.49
2019-06-01T12:08:56.788Z,44.54
2019-06-01T12:11:23.101Z,44.49
2019-06-01T12:13:49.435Z,44.95
2019-06-01T12:16:15.745Z,43.12
2019-06-01T12:18:42.629Z,43.35
2019-06-01T12:21:08.366Z,44.36
2019-06-01T12:23:34.681Z,44.21
2019-06-01T12:26:01.008Z,43.45
2019-06-01T12:28:27.339Z,43.15
2019-06-01T12:30:53.654Z,42.93
2019-06-01T12:33:19.985Z,43.45
2019-06-01T12:35:46.290Z,43.33
2019-06-01T12:38:12.619Z,43.53
2019-06-01T12:40:39.140Z,42.18
2019-06-01T12:43:05.282Z,41.58
2019-06-01T12:45:31.579Z,41.92
2019-06-01T12:47:58.681Z,40.77
2019-06-01T12:50:24.262Z,40.83
2019-06-01T12:52:50.573Z,40.72
2019-06-01T12:55:16.906Z,41.13
2019-06-01T12:57:43.230Z,39.72
2019-06-01T13:00:09.541Z,39.27
2019-06-01T13:02:35.871Z,39.09
2019-06-01T13:05:02.178Z,39.33
2019-06-01T13:07:28.484Z,39.73
2019-06-01T13:09:54.867Z,39.73
2019-06-01T13:12:21.208Z,39.51
2019-06-01T13:14:47.525Z,39.34
2019-06-01T13:17:17.164Z,39.02
2019-06-01T13:19:43.497Z,40.30
2019-06-01T13:22:09.854Z,38.65
2019-06-01T13:24:36.168Z,38.53
2019-06-01T13:27:02.574Z,40.12
2019-06-01T13:29:28.871Z,40.13
2019-06-01T13:31:55.215Z,36.73
2019-06-01T13:34:21.519Z,37.54
2019-06-01T13:36:48.991Z,39.86
2019-06-01T13:39:14.160Z,40.52
2019-06-01T13:41:40.494Z,41.61
2019-06-01T13:44:06.818Z,40.78
2019-06-01T13:46:33.138Z,42.11
2019-06-01T13:48:59.545Z,42.41
2019-06-01T13:51:25.868Z,42.53
2019-06-01T13:53:52.942Z,42.10
2019-06-01T13:56:18.525Z,42.07
2019-06-01T13:58:44.825Z,41.71
2019-06-01T14:01:11.197Z,41.84
2019-06-01T14:03:37.502Z,41.00
2019-06-01T14:06:03.817Z,40.87
2019-06-01T14:08:30.138Z,40.91
2019-06-01T14:10:57.938Z,41.27
2019-06-01T14:13:22.767Z,40.83
2019-06-01T14:15:49.524Z,40.74
2019-06-01T14:18:15.552Z,41.56
2019-06-01T14:20:42.164Z,41.81
2019-06-01T14:23:08.518Z,42.08
2019-06-01T14:25:34.892Z,41.94
2019-06-01T14:28:01.208Z,42.14
2019-06-01T14:30:27.536Z,42.42
2019-06-01T14:32:54.451Z,42.61
2019-06-01T14:35:20.182Z,42.17
2019-06-01T14:37:46.705Z,43.22
2019-06-01T14:40:16.493Z,43.11
2019-06-01T14:42:40.584Z,43.37
2019-06-01T14:45:06.899Z,43.70
2019-06-01T14:47:33.214Z,43.96
2019-06-01T14:49:59.530Z,44.53
2019-06-01T14:52:25.861Z,44.35
2019-06-01T14:54:52.199Z,44.45
2019-06-01T14:57:18.508Z,45.25
2019-06-01T14:59:44.831Z,45.37
2019-06-01T15:02:11.138Z,45.40
2019-06-01T15:04:37.449Z,44.92
2019-06-01T15:07:03.778Z,45.42
2019-06-01T15:09:30.116Z,45.38
2019-06-01T15:11:56.708Z,45.63
2019-06-01T15:14:22.746Z,45.52
2019-06-01T15:16:49.544Z,45.18
2019-06-01T15:19:15.445Z,45.49
2019-06-01T15:21:41.802Z,45.47
2019-06-01T15:24:08.132Z,45.31
2019-06-01T15:26:34.437Z,44.94
2019-06-01T15:29:00.775Z,45.70
2019-06-01T15:31:27.110Z,45.87
2019-06-01T15:33:53.415Z,45.10
2019-06-01T15:36:19.725Z,45.38
2019-06-01T15:38:46.050Z,45.91
2019-06-01T15:41:12.361Z,46.60
2019-06-01T15:43:38.671Z,47.68
2019-06-01T15:46:05.008Z,48.57
2019-06-01T15:48:31.316Z,48.45
2019-06-01T15:51:02.296Z,48.95
2019-06-01T15:53:23.960Z,49.54
2019-06-01T15:55:50.303Z,50.41
2019-06-01T15:58:16.604Z,50.43
2019-06-01T16:00:42.967Z,50.84
2019-06-01T16:03:09.288Z,50.85
2019-06-01T16:05:35.591Z,51.34
2019-06-01T16:08:01.916Z,51.49
2019-06-01T16:10:28.227Z,51.40
2019-06-01T16:12:55.334Z,51.48
2019-06-01T16:15:20.864Z,51.28
2019-06-01T16:17:47.167Z,51.20
2019-06-01T16:20:13.557Z,51.01
2019-06-01T16:22:39.920Z,51.55
2019-06-01T16:25:06.235Z,50.83
2019-06-01T16:27:32.565Z,51.08
2019-06-01T16:30:00.216Z,51.40
2019-06-01T16:32:25.269Z,51.14
2019-06-01T16:34:51.637Z,52.02
2019-06-01T16:37:17.966Z,51.53
2019-06-01T16:39:58.413Z,52.67
2019-06-01T16:42:10.583Z,53.43
2019-06-01T16:44:36.903Z,55.78
2019-06-01T16:47:04.524Z,56.66
2019-06-01T16:49:29.686Z,57.13
2019-06-01T16:51:56.584Z,57.50
2019-06-01T16:54:22.323Z,57.63
2019-06-01T16:56:48.662Z,57.88
2019-06-01T16:59:14.995Z,56.43
2019-06-01T17:01:41.313Z,56.74
2019-06-01T17:04:07.685Z,58.17
2019-06-01T17:06:34.012Z,58.91
2019-06-01T17:09:00.815Z,59.54
2019-06-01T17:11:26.701Z,60.43
2019-06-01T17:13:53.036Z,61.38
2019-06-01T17:16:19.340Z,61.59
2019-06-01T17:18:45.643Z,62.25
2019-06-01T17:21:11.958Z,62.58
2019-06-01T17:23:38.268Z,62.94
2019-06-01T17:26:06.513Z,63.84
2019-06-01T17:28:30.973Z,64.09
2019-06-01T17:30:58.372Z,64.49
2019-06-01T17:33:23.603Z,65.07
2019-06-01T17:35:49.928Z,65.33
2019-06-01T17:38:16.232Z,65.76
2019-06-01T17:40:43.321Z,65.97
2019-06-01T17:43:09.032Z,66.26
2019-06-01T17:45:35.166Z,66.33
2019-06-01T17:48:17.282Z,66.78
2019-06-01T17:50:27.787Z,66.68
2019-06-01T17:52:54.115Z,66.85
2019-06-01T17:55:20.428Z,67.17
2019-06-01T17:57:46.758Z,67.07
2019-06-01T18:00:13.082Z,67.22
2019-06-01T18:02:39.386Z,67.25
2019-06-01T18:05:05.866Z,67.40
2019-06-01T18:07:32.030Z,67.57
2019-06-01T18:09:58.335Z,67.60
2019-06-01T18:12:24.664Z,67.96
2019-06-01T18:14:51.008Z,68.28
2019-06-01T18:17:17.294Z,68.27
2019-06-01T18:19:43.620Z,69.14
2019-06-01T18:22:10.912Z,69.41
2019-06-01T18:24:36.260Z,69.85
2019-06-01T18:27:02.569Z,70.05
2019-06-01T18:29:28.892Z,70.15
2019-06-01T18:31:55.196Z,70.89
2019-06-01T18:34:21.525Z,70.86
2019-06-01T18:36:47.833Z,70.85
2019-06-01T18:39:14.145Z,70.87
2019-06-01T18:41:40.469Z,70.79
2019-06-01T18:44:07.676Z,70.63
2019-06-01T18:46:33.105Z,70.55
2019-06-01T18:48:59.435Z,70.11
2019-06-01T18:51:25.740Z,70.61
2019-06-01T18:53:52.073Z,70.87
2019-06-01T18:56:18.377Z,70.68
2019-06-01T18:58:44.688Z,70.57
2019-06-01T19:01:11.024Z,70.28
2019-06-01T19:03:37.327Z,70.37
2019-06-01T19:06:03.676Z,69.98
2019-06-01T19:08:30.075Z,69.83
2019-06-01T19:10:56.355Z,69.72
2019-06-01T19:13:22.643Z,69.79
2019-06-01T19:15:48.975Z,70.05
2019-06-01T19:18:16.818Z,70.78
2019-06-01T19:20:41.615Z,71.10
2019-06-01T19:23:08.700Z,71.16
2019-06-01T19:25:34.258Z,71.11
2019-06-01T19:28:00.611Z,71.40
2019-06-01T19:30:26.920Z,71.50
2019-06-01T19:32:53.254Z,72.33
2019-06-01T19:35:19.557Z,72.50
2019-06-01T19:37:45.910Z,72.92
2019-06-01T19:40:13.377Z,72.63
2019-06-01T19:42:38.531Z,72.49
2019-06-01T19:45:04.919Z,72.54
2019-06-01T19:47:31.193Z,72.71
2019-06-01T19:49:57.517Z,72.67
2019-06-01T19:52:23.818Z,72.99
2019-06-01T19:54:50.154Z,72.61
2019-06-01T19:57:20.277Z,73.25
2019-06-01T19:59:42.799Z,72.23
2019-06-01T20:02:24.051Z,72.51
2019-06-01T20:04:35.441Z,72.04
2019-06-01T20:07:01.764Z,71.72
2019-06-01T20:09:28.095Z,72.23
2019-06-01T20:12:01.796Z,72.23
2019-06-01T20:14:20.751Z,72.93
2019-06-01T20:16:47.079Z,73.16
2019-06-01T20:19:13.449Z,74.47
2019-06-01T20:21:39.721Z,73.97
2019-06-01T20:24:06.106Z,74.25
2019-06-01T20:26:42.166Z,74.65
2019-06-01T20:28:58.672Z,74.55
2019-06-01T20:31:25.009Z,75.55
2019-06-01T20:33:51.357Z,75.46
2019-06-01T20:36:18.116Z,75.96
2019-06-01T20:38:44.043Z,76.41
2019-06-01T20:41:10.365Z,76.48
2019-06-01T20:43:36.699Z,76.94
2019-06-01T20:46:03.001Z,76.95
2019-06-01T20:48:29.333Z,77.13
2019-06-01T20:50:55.639Z,77.26
2019-06-01T20:53:23.253Z,77.17
2019-06-01T20:55:48.286Z,77.23
2019-06-01T20:58:15.982Z,77.66
2019-06-01T21:00:40.922Z,78.13
2019-06-01T21:03:07.258Z,77.79
2019-06-01T21:05:33.555Z,77.78
2019-06-01T21:07:59.865Z,78.17
2019-06-01T21:10:26.195Z,78.74
2019-06-01T21:12:52.530Z,78.65
2019-06-01T21:15:19.296Z,78.66
2019-06-01T21:17:45.164Z,78.84
2019-06-01T21:20:11.537Z,78.31
2019-06-01T21:22:37.842Z,78.46
2019-06-01T21:25:04.175Z,78.64
2019-06-01T21:27:30.468Z,78.67
2019-06-01T21:29:56.807Z,79.05
2019-06-01T21:32:23.638Z,79.39
2019-06-01T21:34:49.449Z,78.19
2019-06-01T21:37:15.774Z,78.40
2019-06-01T21:39:42.077Z,78.84
2019-06-01T21:42:08.408Z,78.45
2019-06-01T21:44:34.709Z,79.11
2019-06-01T21:47:01.066Z,79.14
2019-06-01T21:49:27.361Z,79.16
2019-06-01T21:51:53.724Z,79.08
2019-06-01T21:54:20.180Z,79.01
2019-06-01T21:56:46.348Z,79.19
2019-06-01T21:59:12.676Z,79.62
2019-06-01T22:01:38.987Z,80.39
2019-06-01T22:04:05.315Z,81.59
2019-06-01T22:06:31.621Z,85.31
2019-06-01T22:08:57.972Z,98.18
2019-06-01T22:11:25.467Z,100.00
2019-06-01T22:13:50.634Z,100.00
2019-06-01T22:16:17.500Z,100.00
2019-06-01T22:18:43.228Z,100.00
2019-06-01T22:21:09.561Z,100.00
2019-06-01T22:23:35.883Z,100.00
2019-06-01T22:26:02.209Z,100.00
2019-06-01T22:28:28.726Z,100.00
2019-06-01T22:30:54.846Z,100.00
2019-06-01T22:33:22.792Z,100.00
2019-06-01T22:35:47.476Z,100.00
2019-06-01T22:38:13.811Z,100.00
2019-06-01T22:40:40.122Z,100.00
2019-06-01T22:43:06.430Z,100.00
2019-06-01T22:45:33.470Z,100.00
2019-06-01T22:47:59.070Z,100.00
2019-06-01T22:50:25.415Z,100.00
2019-06-01T22:52:51.740Z,100.00
2019-06-01T22:55:18.557Z,100.00
2019-06-01T22:57:44.899Z,100.00
2019-06-01T23:00:11.188Z,100.00
2019-06-01T23:02:37.580Z,100.00
2019-06-01T23:05:03.881Z,100.00
2019-06-01T23:07:31.357Z,100.00
2019-06-01T23:09:56.513Z,100.00
2019-06-01T23:12:23.332Z,100.00
2019-06-01T23:14:49.171Z,100.00
2019-06-01T23:17:15.479Z,100.00
2019-06-01T23:19:41.809Z,100.00
2019-06-01T23:22:08.141Z,100.00
2019-06-01T23:24:34.456Z,100.00
2019-06-01T23:27:00.789Z,100.00
2019-06-01T23:29:28.076Z,100.00
2019-06-01T23:31:53.410Z,100.00
2019-06-01T23:34:19.745Z,100.00
2019-06-01T23:36:46.051Z,100.00
2019-06-01T23:39:12.382Z,100.00
2019-06-01T23:41:38.720Z,100.00
2019-06-01T23:44:11.734Z,100.00
2019-06-01T23:46:31.347Z,100.00
2019-06-01T23:48:57.681Z,100.00
2019-06-01T23:51:25.288Z,100.00
2019-06-01T23:53:50.324Z,100.00
2019-06-01T23:56:16.659Z,100.00
2019-06-01T23:58:42.970Z,100.00
